Time;durP1;ratioP1;P1;durP2;ratioP2;P2;SDS_P1;SDS_P2;PMS_P1;PMS_P2;Temp;Humidity;BMP_temperature;BMP_pressure;BME280_temperature;BME280_humidity;BME280_pressure;Samples;Min_cycle;Max_cycle;Signal;HPM_P1;HPM_P2
2023/05/03 00:01:18;;;;;;;9.60;5.20;;;;;;;26.00;21.34;100769.20;108185;1253;60847;-67
2023/05/03 00:03:46;;;;;;;11.30;4.90;;;;;;;26.05;21.35;100772.92;108088;1254;60660;-67
2023/05/03 00:06:14;;;;;;;17.30;5.10;;;;;;;26.23;21.23;100770.19;108159;1254;74119;-66
2023/05/03 00:08:41;;;;;;;11.10;5.00;;;;;;;26.29;21.08;100771.27;108144;1254;71611;-67
2023/05/03 00:11:08;;;;;;;10.00;4.90;;;;;;;26.44;21.09;100771.27;108136;1254;74041;-68
2023/05/03 00:13:35;;;;;;;10.10;4.80;;;;;;;26.20;21.35;100774.73;108095;1254;59721;-67
2023/05/03 00:16:02;;;;;;;8.80;4.80;;;;;;;25.95;21.52;100774.73;108093;1251;60925;-66
2023/05/03 00:18:29;;;;;;;12.30;5.10;;;;;;;25.86;21.72;100772.30;108084;1254;75230;-66
2023/05/03 00:20:57;;;;;;;10.00;4.80;;;;;;;25.95;21.50;100772.56;108110;1254;72039;-68
2023/05/03 00:23:25;;;;;;;13.30;5.00;;;;;;;26.05;21.53;100770.78;108146;1253;72626;-68
2023/05/03 00:25:53;;;;;;;13.60;5.20;;;;;;;26.35;21.34;100766.36;108214;1253;60598;-68
2023/05/03 00:28:20;;;;;;;12.30;4.80;;;;;;;26.44;21.19;100766.56;108213;1251;62399;-67
2023/05/03 00:30:47;;;;;;;14.00;5.40;;;;;;;26.36;21.37;100765.17;108210;1254;75599;-67
2023/05/03 00:33:15;;;;;;;11.70;5.30;;;;;;;26.63;21.28;100766.33;108305;1253;71770;-68
2023/05/03 00:35:43;;;;;;;15.50;6.20;;;;;;;26.61;21.22;100761.95;108176;1254;74691;-66
2023/05/03 00:38:10;;;;;;;14.90;5.50;;;;;;;26.76;20.96;100761.66;108207;1253;60457;-68
2023/05/03 00:40:37;;;;;;;12.40;5.10;;;;;;;26.55;21.17;100760.17;108251;1253;62276;-66
2023/05/03 00:43:03;;;;;;;12.60;5.00;;;;;;;26.72;21.09;100760.79;108170;1254;74954;-64
2023/05/03 00:45:32;;;;;;;14.90;5.30;;;;;;;26.65;21.14;100762.67;108194;1254;69659;-64
2023/05/03 00:47:59;;;;;;;14.80;5.10;;;;;;;26.72;21.15;100759.16;108025;1253;74572;-67
2023/05/03 00:50:26;;;;;;;12.30;4.90;;;;;;;26.40;21.44;100760.66;108212;1253;61588;-68
2023/05/03 00:52:53;;;;;;;14.50;5.40;;;;;;;26.44;21.56;100754.53;108178;1253;60290;-66
2023/05/03 00:55:20;;;;;;;14.50;5.30;;;;;;;26.30;21.45;100755.27;108150;1253;74817;-65
2023/05/03 00:57:47;;;;;;;10.30;4.80;;;;;;;26.21;21.73;100759.27;108219;1253;71889;-67
2023/05/03 01:00:15;;;;;;;12.00;4.60;;;;;;;26.24;21.80;100755.13;108252;1253;74630;-66
2023/05/03 01:02:42;;;;;;;12.50;5.20;;;;;;;26.19;21.79;100755.46;108295;1254;60435;-64
2023/05/03 01:05:09;;;;;;;12.70;4.90;;;;;;;26.20;21.83;100757.52;108233;1252;61445;-66
2023/05/03 01:07:48;;;;;;;14.40;5.30;;;;;;;25.95;22.15;100754.77;108096;1254;73320;-66
2023/05/03 01:10:39;;;;;;;12.00;5.20;;;;;;;25.89;22.27;100756.79;108103;1259;72406;-67
2023/05/03 01:13:22;;;;;;;10.10;4.80;;;;;;;25.80;22.41;100754.29;108133;1254;74785;-67
2023/05/03 01:16:07;;;;;;;9.90;4.70;;;;;;;25.79;22.41;100752.27;108134;1254;60613;-66
2023/05/03 01:18:37;;;;;;;12.30;4.90;;;;;;;25.75;22.46;100750.27;108111;1252;62246;-66
2023/05/03 01:21:05;;;;;;;12.60;4.80;;;;;;;25.53;22.84;100746.71;108153;1254;73830;-66
2023/05/03 01:23:32;;;;;;;12.40;4.50;;;;;;;25.51;22.83;100745.25;108116;1252;70389;-66
2023/05/03 01:25:59;;;;;;;10.90;4.80;;;;;;;25.43;23.05;100744.05;108166;1254;73998;-67
2023/05/03 01:28:26;;;;;;;13.50;5.40;;;;;;;25.48;22.96;100738.67;108136;1253;60557;-65
2023/05/03 01:30:54;;;;;;;14.20;5.70;;;;;;;25.47;22.95;100734.52;108232;1253;62262;-67
2023/05/03 01:33:29;;;;;;;14.00;5.40;;;;;;;25.53;23.00;100734.08;108249;1254;72855;-65
2023/05/03 01:36:01;;;;;;;8.90;4.60;;;;;;;25.14;23.35;100735.23;108168;1253;69436;-66
2023/05/03 01:38:29;;;;;;;14.10;4.90;;;;;;;25.26;23.25;100734.61;108239;1253;74506;-67
2023/05/03 01:40:58;;;;;;;12.30;4.70;;;;;;;25.47;23.05;100732.14;108217;1254;61078;-67
2023/05/03 01:43:25;;;;;;;16.60;5.30;;;;;;;25.75;22.79;100729.77;108201;1252;60725;-66
2023/05/03 01:45:52;;;;;;;12.30;4.70;;;;;;;25.64;23.00;100728.43;108324;1254;75552;-66
2023/05/03 01:48:19;;;;;;;13.30;4.40;;;;;;;25.26;23.28;100729.15;108249;1254;70723;-68
2023/05/03 01:50:45;;;;;;;14.00;4.30;;;;;;;25.16;23.48;100728.96;108190;1254;75441;-68
2023/05/03 01:53:12;;;;;;;9.00;4.20;;;;;;;25.33;23.35;100725.09;108211;1253;60441;-66
2023/05/03 01:55:40;;;;;;;10.60;4.50;;;;;;;25.27;23.43;100722.59;108286;1253;62140;-66
2023/05/03 01:58:07;;;;;;;8.10;4.00;;;;;;;25.53;23.35;100719.61;108267;1253;74521;-67
2023/05/03 02:00:35;;;;;;;8.40;3.50;;;;;;;25.51;23.12;100718.45;108352;1253;71683;-67
2023/05/03 02:03:02;;;;;;;12.40;3.60;;;;;;;25.60;23.03;100719.96;108202;1254;74889;-66
2023/05/03 02:05:29;;;;;;;8.50;3.60;;;;;;;25.53;23.21;100718.66;108281;1253;61870;-67
2023/05/03 02:07:55;;;;;;;8.90;3.70;;;;;;;25.61;23.04;100717.04;108245;1254;62504;-67
2023/05/03 02:10:22;;;;;;;12.30;4.20;;;;;;;25.74;22.92;100720.52;108202;1254;74257;-67
2023/05/03 02:12:49;;;;;;;6.20;3.70;;;;;;;25.39;23.31;100720.80;108247;1253;72617;-69
2023/05/03 02:15:18;;;;;;;8.60;3.40;;;;;;;24.88;23.79;100727.13;108185;1254;74953;-70
2023/05/03 02:17:48;;;;;;;7.80;3.80;;;;;;;24.68;24.07;100730.81;108187;1252;61219;-66
2023/05/03 02:20:15;;;;;;;10.50;3.80;;;;;;;24.74;24.08;100733.91;108249;1254;61614;-67
2023/05/03 02:22:42;;;;;;;6.90;3.50;;;;;;;24.83;24.07;100732.06;108188;1254;75543;-67
2023/05/03 02:25:09;;;;;;;9.10;3.90;;;;;;;25.34;23.56;100735.25;108204;1254;70020;-66
2023/05/03 02:27:36;;;;;;;6.30;4.00;;;;;;;24.88;23.87;100736.61;108163;1254;72498;-67
2023/05/03 02:30:05;;;;;;;7.90;4.20;;;;;;;24.89;23.81;100737.77;108202;1253;60444;-66
2023/05/03 02:32:35;;;;;;;7.10;4.00;;;;;;;24.75;24.10;100742.42;108217;1252;60112;-65
2023/05/03 02:35:02;;;;;;;9.30;4.00;;;;;;;24.89;23.97;100736.17;108262;1254;75898;-67
2023/05/03 02:37:29;;;;;;;7.50;3.60;;;;;;;24.78;24.13;100741.13;108204;1253;72064;-65
2023/05/03 02:39:56;;;;;;;8.30;3.90;;;;;;;24.70;24.18;100740.55;108196;1254;74891;-67
2023/05/03 02:42:23;;;;;;;8.30;3.90;;;;;;;24.86;24.15;100737.36;108232;1254;61380;-66
2023/05/03 02:44:51;;;;;;;12.20;4.20;;;;;;;25.01;24.03;100733.75;108099;1252;62197;-65
2023/05/03 02:47:18;;;;;;;6.20;3.80;;;;;;;24.74;24.17;100736.94;108173;1253;75994;-67
2023/05/03 02:49:44;;;;;;;9.20;4.10;;;;;;;24.65;24.40;100738.25;108118;1254;72743;-67
2023/05/03 02:52:12;;;;;;;7.20;3.80;;;;;;;24.58;24.48;100740.34;108074;1254;74827;-66
2023/05/03 02:54:38;;;;;;;7.70;4.10;;;;;;;24.53;24.52;100739.34;108175;1254;60458;-66
2023/05/03 02:57:07;;;;;;;10.40;4.90;;;;;;;24.18;24.94;100746.37;108249;1253;62575;-67
2023/05/03 02:59:34;;;;;;;9.90;3.90;;;;;;;24.08;25.16;100747.96;108165;1252;76168;-66
2023/05/03 03:02:01;;;;;;;11.30;3.90;;;;;;;24.23;25.05;100743.79;108204;1254;72470;-67
2023/05/03 03:04:28;;;;;;;9.80;4.50;;;;;;;24.42;24.94;100743.27;108108;1254;72639;-66
2023/05/03 03:06:55;;;;;;;9.40;4.00;;;;;;;24.45;24.79;100741.33;108277;1253;60941;-66
2023/05/03 03:09:23;;;;;;;14.10;3.90;;;;;;;24.62;24.74;100741.74;108126;1252;62684;-64
2023/05/03 03:11:50;;;;;;;6.10;3.30;;;;;;;24.66;24.78;100733.14;108256;1252;73179;-65
2023/05/03 03:14:18;;;;;;;8.30;3.60;;;;;;;25.04;24.37;100729.87;108261;1254;72428;-67
2023/05/03 03:16:44;;;;;;;9.00;3.40;;;;;;;24.63;24.69;100735.56;108178;1254;73933;-67
2023/05/03 03:19:12;;;;;;;10.90;4.10;;;;;;;24.85;24.70;100736.31;108155;1254;61488;-67
2023/05/03 03:21:40;;;;;;;6.90;3.70;;;;;;;25.38;24.31;100732.41;108195;1253;62438;-66
2023/05/03 03:24:07;;;;;;;7.80;3.60;;;;;;;25.63;23.82;100733.91;108210;1252;73937;-67
2023/05/03 03:26:34;;;;;;;7.00;3.40;;;;;;;25.83;23.73;100734.63;108187;1254;70090;-67
2023/05/03 03:29:01;;;;;;;8.20;3.80;;;;;;;26.03;23.57;100735.85;108094;1253;74895;-68
2023/05/03 03:31:28;;;;;;;10.10;3.90;;;;;;;26.35;23.19;100737.31;108096;1254;62584;-67
2023/05/03 03:33:56;;;;;;;8.20;3.50;;;;;;;25.92;23.56;100739.58;107972;1253;62060;-67
2023/05/03 03:36:23;;;;;;;6.80;3.10;;;;;;;25.83;23.80;100739.48;108005;1254;75932;-67
2023/05/03 03:38:50;;;;;;;9.10;3.70;;;;;;;26.38;23.34;100740.89;108086;1253;70401;-65
2023/05/03 03:41:18;;;;;;;9.20;3.80;;;;;;;26.64;22.95;100740.23;108150;1253;73213;-66
2023/05/03 03:43:45;;;;;;;10.90;3.60;;;;;;;26.76;22.88;100741.47;108010;1254;62274;-66
2023/05/03 03:46:13;;;;;;;11.00;3.20;;;;;;;26.54;22.93;100738.98;108093;1253;60263;-67
2023/05/03 03:48:41;;;;;;;11.50;3.70;;;;;;;26.18;23.46;100742.40;108156;1257;75993;-67
2023/05/03 03:51:08;;;;;;;10.70;3.20;;;;;;;26.25;23.32;100740.80;108109;1253;72527;-69
2023/05/03 03:53:38;;;;;;;11.10;3.20;;;;;;;26.49;23.29;100744.19;108074;1257;75256;-67
2023/05/03 03:56:05;;;;;;;16.30;4.30;;;;;;;26.59;23.21;100741.12;107968;1253;62521;-68
2023/05/03 03:58:32;;;;;;;7.70;2.90;;;;;;;27.02;22.74;100740.23;108098;1254;62455;-67
2023/05/03 04:01:00;;;;;;;10.70;4.00;;;;;;;27.37;22.40;100743.30;108110;1254;73794;-67
2023/05/03 04:03:27;;;;;;;13.50;3.90;;;;;;;27.16;22.49;100744.25;108130;1254;71938;-66
2023/05/03 04:05:54;;;;;;;12.50;3.60;;;;;;;27.06;22.64;100746.15;108077;1254;75200;-68
2023/05/03 04:08:21;;;;;;;19.00;5.00;;;;;;;27.14;22.63;100747.14;108122;1256;63006;-68
2023/05/03 04:10:49;;;;;;;17.80;5.70;;;;;;;27.49;22.25;100748.63;108049;1254;61089;-69
2023/05/03 04:13:16;;;;;;;14.40;4.90;;;;;;;27.78;22.10;100748.81;108062;1254;74107;-69
2023/05/03 04:15:45;;;;;;;14.30;5.70;;;;;;;27.96;21.88;100754.95;108073;1253;72185;-68
2023/05/03 04:18:12;;;;;;;19.80;6.70;;;;;;;27.89;21.78;100749.50;108115;1257;74737;-68
2023/05/03 04:20:40;;;;;;;19.80;6.90;;;;;;;28.23;21.66;100742.48;108080;1257;61413;-68
2023/05/03 04:23:07;;;;;;;19.40;7.30;;;;;;;28.08;21.70;100746.54;108077;1253;62399;-68
2023/05/03 04:25:35;;;;;;;20.10;6.10;;;;;;;28.48;21.44;100743.21;108171;1254;75006;-68
2023/05/03 04:28:08;;;;;;;13.70;5.60;;;;;;;28.75;21.28;100750.19;108065;1258;70222;-69
2023/05/03 04:30:36;;;;;;;11.20;4.50;;;;;;;29.02;20.79;100747.54;108044;1254;74828;-69
2023/05/03 04:33:03;;;;;;;11.40;3.90;;;;;;;28.93;20.82;100754.23;108094;1253;60540;-67
2023/05/03 04:35:33;;;;;;;13.10;4.40;;;;;;;29.12;20.79;100750.52;108023;1253;62787;-69
2023/05/03 04:38:03;;;;;;;11.20;4.20;;;;;;;29.48;20.69;100750.80;108030;1254;75909;-69
2023/05/03 04:40:30;;;;;;;11.80;4.00;;;;;;;29.37;20.57;100753.41;108167;1254;72436;-67
2023/05/03 04:43:04;;;;;;;8.50;3.50;;;;;;;29.87;20.16;100754.06;108082;1254;74629;-68
2023/05/03 04:45:32;;;;;;;10.60;3.40;;;;;;;29.82;19.88;100754.17;108089;1254;62466;-68
2023/05/03 04:48:00;;;;;;;9.60;3.30;;;;;;;30.05;20.07;100753.00;107922;1253;62948;-69
2023/05/03 04:50:27;;;;;;;11.30;3.70;;;;;;;30.30;19.46;100750.86;108017;1254;72944;-70
2023/05/03 04:52:54;;;;;;;9.10;3.20;;;;;;;30.17;19.89;100756.17;108075;1253;71804;-69
2023/05/03 04:55:22;;;;;;;19.00;3.70;;;;;;;30.29;19.34;100756.33;108129;1254;74200;-68
2023/05/03 04:57:51;;;;;;;12.40;3.40;;;;;;;30.57;19.36;100757.95;108089;1253;62642;-68
2023/05/03 05:00:18;;;;;;;16.10;3.40;;;;;;;30.95;19.25;100759.61;108068;1252;61286;-68
2023/05/03 05:02:49;;;;;;;9.90;3.80;;;;;;;31.14;18.81;100760.65;108049;1254;75408;-70
2023/05/03 05:05:16;;;;;;;9.90;2.90;;;;;;;31.44;18.58;100761.80;108074;1254;69474;-68
2023/05/03 05:07:47;;;;;;;9.80;3.00;;;;;;;31.64;18.43;100767.73;108143;1254;74084;-69
2023/05/03 05:10:15;;;;;;;14.70;3.20;;;;;;;32.31;18.02;100767.00;108032;1253;60687;-68
2023/05/03 05:12:42;;;;;;;9.40;3.20;;;;;;;32.20;17.89;100771.39;108013;1253;60968;-68
2023/05/03 05:15:09;;;;;;;18.30;3.20;;;;;;;32.40;17.72;100775.38;108063;1252;74143;-69
2023/05/03 05:17:36;;;;;;;18.90;3.10;;;;;;;32.29;17.86;100774.58;108123;1253;73170;-68
2023/05/03 05:20:06;;;;;;;17.40;2.90;;;;;;;32.22;17.77;100772.77;108111;1256;75011;-67
2023/05/03 05:22:33;;;;;;;16.20;3.10;;;;;;;31.87;18.13;100775.46;108097;1254;62308;-68
2023/05/03 05:25:00;;;;;;;18.80;3.50;;;;;;;31.64;18.24;100778.27;108082;1252;62391;-69
2023/05/03 05:27:27;;;;;;;20.30;3.30;;;;;;;32.01;18.16;100776.56;108071;1253;74715;-68
2023/05/03 05:29:55;;;;;;;14.60;2.90;;;;;;;32.67;17.74;100776.52;108229;1254;72913;-67
2023/05/03 05:32:21;;;;;;;22.50;3.30;;;;;;;32.30;17.78;100769.05;108006;1253;73494;-68
2023/05/03 05:34:54;;;;;;;18.30;3.50;;;;;;;32.41;17.71;100767.27;107941;1253;61196;-69
2023/05/03 05:37:24;;;;;;;11.70;2.90;;;;;;;32.77;17.49;100768.49;108087;1252;62231;-69
2023/05/03 05:39:52;;;;;;;14.40;3.30;;;;;;;33.06;17.15;100767.02;108124;1252;76103;-69
2023/05/03 05:42:19;;;;;;;15.70;3.10;;;;;;;33.12;17.09;100759.23;108119;1253;72156;-69
2023/05/03 05:44:46;;;;;;;13.90;2.60;;;;;;;33.21;17.10;100755.02;108042;1257;74978;-69
2023/05/03 05:47:13;;;;;;;17.50;3.30;;;;;;;33.11;17.03;100754.01;108104;1254;61231;-66
2023/05/03 05:49:41;;;;;;;14.60;3.10;;;;;;;33.77;16.56;100752.54;108170;1252;62399;-69
2023/05/03 05:52:09;;;;;;;18.50;3.00;;;;;;;33.56;16.80;100754.81;108179;1253;74596;-68
2023/05/03 05:54:36;;;;;;;9.20;2.50;;;;;;;33.55;16.55;100753.34;108168;1254;72011;-68
2023/05/03 05:57:03;;;;;;;10.70;2.70;;;;;;;33.25;16.67;100753.80;108109;1254;74753;-68
2023/05/03 05:59:30;;;;;;;11.70;2.60;;;;;;;33.44;16.63;100755.12;108035;1254;60709;-68
2023/05/03 06:01:59;;;;;;;12.10;2.60;;;;;;;33.15;16.67;100751.31;108077;1253;60422;-70
2023/05/03 06:04:27;;;;;;;7.10;2.40;;;;;;;32.45;17.04;100754.55;107997;1253;76200;-68
2023/05/03 06:06:55;;;;;;;9.30;2.20;;;;;;;32.54;17.13;100751.81;108048;1258;71433;-68
2023/05/03 06:09:21;;;;;;;6.20;2.20;;;;;;;32.14;17.40;100752.83;108027;1253;73715;-69
2023/05/03 06:11:54;;;;;;;8.20;2.20;;;;;;;32.50;16.96;100752.78;108039;1253;62169;-68
2023/05/03 06:14:22;;;;;;;11.80;2.80;;;;;;;32.54;16.74;100750.72;108046;1253;62084;-68
2023/05/03 06:16:49;;;;;;;16.20;3.50;;;;;;;32.51;16.72;100747.15;107898;1253;74244;-68
2023/05/03 06:19:16;;;;;;;10.50;3.00;;;;;;;32.96;16.62;100743.17;108104;1254;69409;-68
2023/05/03 06:21:43;;;;;;;5.90;2.80;;;;;;;33.26;16.37;100737.29;108050;1259;74889;-68
2023/05/03 06:24:10;;;;;;;10.40;2.60;;;;;;;33.96;16.01;100730.55;107979;1257;60239;-69
2023/05/03 06:26:37;;;;;;;9.30;2.40;;;;;;;34.41;15.53;100729.66;108053;1253;62196;-69
2023/05/03 06:29:05;;;;;;;9.00;2.30;;;;;;;34.31;15.43;100726.79;108012;1253;75832;-70
2023/05/03 06:31:32;;;;;;;9.20;2.40;;;;;;;34.84;15.28;100719.67;108026;1254;63594;-68
2023/05/03 06:33:59;;;;;;;7.80;2.00;;;;;;;35.06;15.05;100725.77;107983;1257;71245;-68
2023/05/03 06:36:28;;;;;;;4.80;1.80;;;;;;;35.11;15.14;100721.11;108132;1253;61508;-67
2023/05/03 06:38:56;;;;;;;15.00;2.60;;;;;;;34.95;14.79;100724.88;108097;1254;62769;-69
2023/05/03 06:41:22;;;;;;;18.90;2.40;;;;;;;34.86;14.85;100723.10;108112;1254;75284;-70
2023/05/03 06:43:49;;;;;;;6.90;2.10;;;;;;;35.24;14.74;100719.75;108105;1253;62528;-69
2023/05/03 06:46:16;;;;;;;13.20;2.00;;;;;;;35.24;14.83;100721.42;108063;1257;65159;-69
2023/05/03 06:48:45;;;;;;;5.80;2.00;;;;;;;35.05;14.67;100719.33;107965;1252;60357;-70
2023/05/03 06:51:13;;;;;;;3.50;1.60;;;;;;;35.30;14.50;100717.89;108167;1253;62723;-68
2023/05/03 06:53:40;;;;;;;12.10;2.30;;;;;;;35.59;14.38;100722.06;108174;1254;66630;-69
2023/05/03 06:56:07;;;;;;;5.90;1.60;;;;;;;35.53;14.17;100724.27;108120;1254;62515;-70
2023/05/03 06:58:33;;;;;;;9.40;2.30;;;;;;;35.07;14.54;100725.66;108076;1254;64997;-69
2023/05/03 07:01:00;;;;;;;6.10;1.70;;;;;;;34.85;14.41;100731.48;108201;1254;58203;-69
2023/05/03 07:03:27;;;;;;;6.00;1.90;;;;;;;34.30;14.54;100722.70;108180;1254;59157;-69
2023/05/03 07:05:55;;;;;;;8.80;2.10;;;;;;;34.09;14.60;100719.36;108033;1253;72742;-69
2023/05/03 07:08:22;;;;;;;9.10;2.20;;;;;;;34.93;14.40;100710.14;107982;1254;72046;-68
2023/05/03 07:10:49;;;;;;;8.20;2.10;;;;;;;34.65;14.24;100716.85;108053;1258;66465;-69
2023/05/03 07:13:16;;;;;;;31.50;2.70;;;;;;;34.02;14.27;100729.54;108046;1253;60671;-68
2023/05/03 07:15:44;;;;;;;29.40;3.90;;;;;;;34.04;14.23;100716.73;108096;1254;60335;-68
2023/05/03 07:18:11;;;;;;;9.90;2.80;;;;;;;34.68;14.16;100713.59;108110;1254;75034;-67
2023/05/03 07:20:38;;;;;;;17.10;2.10;;;;;;;34.29;13.81;100717.61;108111;1254;71582;-71
2023/05/03 07:23:06;;;;;;;11.10;2.30;;;;;;;34.20;13.92;100719.23;108029;1254;73760;-69
2023/05/03 07:25:32;;;;;;;2.90;1.30;;;;;;;33.91;14.15;100717.34;108014;1254;62907;-70
2023/05/03 07:28:00;;;;;;;4.90;1.40;;;;;;;34.03;14.18;100710.53;108061;1254;60396;-68
2023/05/03 07:30:28;;;;;;;12.60;1.70;;;;;;;34.67;14.15;100703.17;108062;1253;73281;-68
2023/05/03 07:32:55;;;;;;;7.30;1.60;;;;;;;34.35;13.90;100705.11;108116;1253;71595;-67
2023/05/03 07:35:22;;;;;;;11.20;2.00;;;;;;;34.93;13.87;100707.19;108062;1252;65003;-68
2023/05/03 07:37:48;;;;;;;10.50;2.00;;;;;;;35.03;13.24;100706.96;108139;1252;60350;-68
2023/05/03 07:40:15;;;;;;;9.70;2.40;;;;;;;34.00;13.80;100710.66;108090;1254;61144;-67
2023/05/03 07:42:42;;;;;;;5.30;1.70;;;;;;;34.38;13.63;100703.89;108115;1253;76162;-67
2023/05/03 07:45:09;;;;;;;8.40;1.60;;;;;;;33.88;13.85;100707.86;108124;1254;70546;-68
2023/05/03 07:47:38;;;;;;;10.30;1.80;;;;;;;34.23;13.68;100695.77;108146;1254;74599;-68
2023/05/03 07:50:05;;;;;;;8.00;1.60;;;;;;;34.28;13.43;100697.86;108105;1254;62494;-69
2023/05/03 07:52:36;;;;;;;12.00;2.10;;;;;;;33.79;13.34;100701.33;108194;1253;62765;-70
2023/05/03 07:55:03;;;;;;;8.60;1.70;;;;;;;33.21;13.30;100702.52;108124;1252;74223;-69
2023/05/03 07:57:30;;;;;;;3.60;1.50;;;;;;;34.64;12.91;100694.86;108161;1253;71917;-68
2023/05/03 07:59:57;;;;;;;5.80;1.40;;;;;;;33.34;13.11;100696.05;108143;1254;75053;-68
2023/05/03 08:02:24;;;;;;;20.50;2.50;;;;;;;33.71;12.91;100697.27;108164;1254;61644;-69
2023/05/03 08:04:51;;;;;;;6.30;1.90;;;;;;;34.21;12.53;100691.63;108176;1252;61087;-68
2023/05/03 08:07:18;;;;;;;18.30;1.70;;;;;;;34.55;12.13;100692.11;108130;1254;67452;-70
2023/05/03 08:09:46;;;;;;;4.50;1.20;;;;;;;34.68;12.45;100679.17;108213;1254;71081;-69
2023/05/03 08:12:13;;;;;;;4.80;1.60;;;;;;;35.06;12.11;100677.64;108137;1253;73618;-70
2023/05/03 08:14:40;;;;;;;6.50;1.30;;;;;;;36.05;11.60;100675.91;108183;1253;60416;-69
2023/05/03 08:17:08;;;;;;;5.80;1.50;;;;;;;35.61;11.64;100674.38;108109;1253;60357;-68
2023/05/03 08:19:35;;;;;;;7.50;1.80;;;;;;;35.48;11.57;100676.83;108136;1253;66336;-70
2023/05/03 08:22:02;;;;;;;5.90;1.40;;;;;;;34.74;11.79;100682.92;108168;1254;63460;-68
2023/05/03 08:24:29;;;;;;;5.80;1.50;;;;;;;34.47;11.86;100677.89;108174;1254;73928;-67
2023/05/03 08:26:55;;;;;;;5.60;1.30;;;;;;;34.64;11.79;100687.05;108166;1254;62079;-69
2023/05/03 08:29:22;;;;;;;3.80;1.40;;;;;;;33.07;12.51;100686.70;108068;1253;61496;-68
2023/05/03 08:31:52;;;;;;;3.50;1.40;;;;;;;32.91;12.95;100677.00;108038;1254;75804;-66
2023/05/03 08:34:19;;;;;;;9.10;1.40;;;;;;;33.09;12.77;100684.93;108194;1254;72681;-68
2023/05/03 08:36:46;;;;;;;7.10;1.50;;;;;;;32.90;12.99;100691.27;107995;1254;73070;-69
2023/05/03 08:39:14;;;;;;;21.90;2.00;;;;;;;32.48;13.06;100694.17;108055;1252;60410;-69
2023/05/03 08:41:41;;;;;;;8.60;1.20;;;;;;;32.78;13.00;100698.77;108154;1253;61174;-69
2023/05/03 08:44:07;;;;;;;5.90;1.80;;;;;;;32.87;13.02;100691.27;108123;1253;74617;-69
2023/05/03 08:46:36;;;;;;;8.50;1.60;;;;;;;33.19;13.05;100692.23;108033;1254;70762;-66
2023/05/03 08:49:03;;;;;;;4.50;1.40;;;;;;;34.18;12.33;100689.10;108103;1253;74664;-69
2023/05/03 08:51:30;;;;;;;14.00;2.10;;;;;;;34.18;12.57;100679.73;108135;1252;62336;-66
2023/05/03 08:53:58;;;;;;;10.90;1.70;;;;;;;34.62;12.61;100686.64;108114;1252;61970;-71
2023/05/03 08:56:29;;;;;;;6.10;1.40;;;;;;;34.67;12.45;100673.66;107924;1253;76171;-68
2023/05/03 08:58:56;;;;;;;6.20;1.40;;;;;;;35.06;12.50;100663.57;108064;1254;62834;-68
2023/05/03 09:01:22;;;;;;;3.70;1.40;;;;;;;35.10;12.19;100666.48;108079;1258;73410;-66
2023/05/03 09:03:50;;;;;;;11.70;1.70;;;;;;;35.14;12.28;100662.17;108119;1253;60400;-68
2023/05/03 09:06:18;;;;;;;2.80;1.30;;;;;;;35.90;12.04;100666.48;108128;1254;60402;-68
2023/05/03 09:08:45;;;;;;;8.50;1.50;;;;;;;35.76;12.07;100667.90;108135;1253;67357;-69
2023/05/03 09:11:29;;;;;;;5.40;1.50;;;;;;;36.44;11.70;100672.48;108135;1253;63603;-68
2023/05/03 09:14:15;;;;;;;10.70;1.90;;;;;;;36.55;11.88;100668.23;108114;1254;64890;-69
2023/05/03 09:16:44;;;;;;;7.80;1.60;;;;;;;35.20;12.52;100667.75;108081;1256;60502;-68
2023/05/03 09:19:12;;;;;;;23.00;2.00;;;;;;;35.35;12.74;100660.23;108085;1258;60501;-72
2023/05/03 09:23:38;;;;;;;10.80;2.00;;;;;;;33.21;14.13;100678.70;105688;1282;600296;-70
2023/05/03 09:26:06;;;;;;;5.90;1.70;;;;;;;34.96;12.92;100669.99;107335;1264;59113;-67
2023/05/03 09:28:40;;;;;;;13.80;1.80;;;;;;;35.30;12.75;100667.38;107369;1264;59349;-69
2023/05/03 09:31:06;;;;;;;6.90;1.50;;;;;;;35.90;12.58;100678.59;107429;1264;64417;-70
2023/05/03 09:33:33;;;;;;;8.00;1.60;;;;;;;36.31;12.67;100671.98;107398;1267;63769;-68
2023/05/03 09:36:04;;;;;;;12.20;2.00;;;;;;;36.96;12.27;100660.80;107272;1266;65118;-69
2023/05/03 09:38:37;;;;;;;9.90;2.00;;;;;;;37.36;12.19;100657.09;107278;1264;59224;-68
2023/05/03 09:41:07;;;;;;;4.20;2.00;;;;;;;36.85;12.44;100664.64;107456;1264;59080;-69
2023/05/03 09:43:37;;;;;;;19.60;2.60;;;;;;;35.72;13.02;100673.97;107395;1264;64357;-69
2023/05/03 09:46:08;;;;;;;17.70;2.00;;;;;;;35.85;12.96;100671.85;107405;1262;63912;-68
2023/05/03 09:48:38;;;;;;;4.80;1.70;;;;;;;35.45;13.02;100683.16;107395;1264;74147;-68
2023/05/03 09:51:05;;;;;;;8.60;1.80;;;;;;;36.15;12.67;100666.05;107405;1264;59512;-68
2023/05/03 09:53:33;;;;;;;7.00;1.70;;;;;;;36.25;12.68;100663.55;107393;1263;59120;-69
2023/05/03 09:56:04;;;;;;;14.40;1.80;;;;;;;36.64;12.81;100672.61;107363;1263;66497;-68
2023/05/03 09:58:33;;;;;;;8.20;2.10;;;;;;;36.40;13.05;100674.63;107416;1263;63799;-67
2023/05/03 10:01:01;;;;;;;4.80;1.70;;;;;;;36.60;12.99;100662.96;107428;1264;64723;-69
2023/05/03 10:03:33;;;;;;;;;;;;;;;36.10;13.42;100663.25;107408;1264;59725;-67
2023/05/03 10:06:02;;;;;;;11.70;2.10;;;;;;;35.96;13.43;100656.17;107411;1263;59382;-69
2023/05/03 10:08:33;;;;;;;4.60;1.80;;;;;;;36.53;13.28;100657.35;107400;1263;66282;-69
2023/05/03 10:11:02;;;;;;;5.80;1.90;;;;;;;36.91;13.02;100652.56;107419;1264;62315;-67
2023/05/03 10:13:29;;;;;;;12.80;2.20;;;;;;;36.93;13.08;100658.50;107377;1264;66009;-68
2023/05/03 10:16:08;;;;;;;8.60;1.80;;;;;;;37.00;12.95;100662.95;107457;1265;59407;-69
2023/05/03 10:18:47;;;;;;;12.50;2.00;;;;;;;36.22;13.16;100672.23;107365;1264;59739;-67
2023/05/03 10:21:17;;;;;;;5.60;1.90;;;;;;;36.06;13.44;100672.58;107350;1264;63218;-69
2023/05/03 10:24:14;;;;;;;10.90;1.80;;;;;;;35.77;13.71;100664.77;107362;1264;62601;-69
2023/05/03 10:26:46;;;;;;;10.20;2.20;;;;;;;35.42;13.78;100678.48;107373;1264;65988;-69
2023/05/03 10:29:37;;;;;;;6.10;1.90;;;;;;;35.69;13.80;100672.02;107369;1264;59563;-68
2023/05/03 10:32:04;;;;;;;16.40;2.10;;;;;;;37.15;12.88;100661.78;107386;1264;57707;-71
2023/05/03 10:34:32;;;;;;;5.90;1.80;;;;;;;36.99;12.81;100670.63;107509;1260;66325;-68
2023/05/03 10:37:07;;;;;;;8.60;1.70;;;;;;;36.35;13.17;100665.86;107485;1260;63462;-68
2023/05/03 10:39:34;;;;;;;9.20;2.10;;;;;;;36.87;13.05;100665.79;107532;1261;65898;-69
2023/05/03 10:42:02;;;;;;;7.30;1.80;;;;;;;36.90;13.04;100669.13;107509;1260;59538;-69
2023/05/03 10:44:47;;;;;;;9.20;2.00;;;;;;;37.08;12.95;100661.58;107577;1260;61326;-69
2023/05/03 10:47:22;;;;;;;4.00;2.10;;;;;;;37.84;12.58;100660.16;107557;1260;65397;-70
2023/05/03 10:50:14;;;;;;;14.80;2.20;;;;;;;38.16;12.48;100654.86;107639;1260;62499;-67
2023/05/03 10:52:40;;;;;;;14.90;2.20;;;;;;;38.21;12.34;100658.71;107611;1262;64821;-68
2023/05/03 10:55:12;;;;;;;12.90;2.30;;;;;;;37.48;12.78;100658.77;107547;1260;59601;-69
2023/05/03 10:57:40;;;;;;;11.70;2.20;;;;;;;36.59;13.41;100662.05;107561;1260;59168;-70
2023/05/03 11:00:15;;;;;;;19.20;2.70;;;;;;;36.05;13.85;100664.30;107467;1260;66648;-69
2023/05/03 11:03:00;;;;;;;12.90;1.80;;;;;;;36.35;13.65;100666.40;107768;1257;62436;-68
2023/05/03 11:05:28;;;;;;;6.50;1.80;;;;;;;36.95;13.32;100660.67;107733;1257;66012;-67
2023/05/03 11:08:21;;;;;;;4.70;1.60;;;;;;;37.20;12.99;100649.91;107773;1257;59813;-68
2023/05/03 11:10:50;;;;;;;10.20;2.40;;;;;;;36.80;13.34;100654.27;107761;1257;59665;-67
2023/05/03 11:13:17;;;;;;;7.00;2.30;;;;;;;37.50;13.11;100645.36;107831;1257;66754;-68
2023/05/03 11:15:43;;;;;;;6.10;2.70;;;;;;;37.55;13.15;100642.52;107798;1257;62418;-67
2023/05/03 11:18:13;;;;;;;8.50;2.20;;;;;;;37.72;13.12;100642.44;107779;1258;64813;-68
2023/05/03 11:20:40;;;;;;;11.80;2.60;;;;;;;37.01;13.55;100643.40;107809;1257;59522;-68
2023/05/03 11:23:07;;;;;;;14.00;2.20;;;;;;;37.13;13.46;100644.23;107810;1257;59702;-68